createdAt,value
2018-09-19T00:01:46.377Z,21.77
2018-09-19T00:04:15.415Z,21.13
2018-09-19T00:06:44.311Z,21.23
2018-09-19T00:09:13.459Z,19.87
2018-09-19T00:11:43.119Z,15.87
2018-09-19T00:14:12.463Z,17.97
2018-09-19T00:16:41.438Z,22.53
2018-09-19T00:19:10.628Z,25.60
2018-09-19T00:21:39.750Z,21.97
2018-09-19T00:24:09.051Z,25.90
2018-09-19T00:26:38.219Z,24.57
2018-09-19T00:29:07.539Z,21.67
2018-09-19T00:31:36.740Z,27.67
2018-09-19T00:34:05.942Z,33.27
2018-09-19T00:36:34.834Z,26.10
2018-09-19T00:39:04.008Z,26.63
2018-09-19T00:41:32.982Z,23.40
2018-09-19T00:44:01.857Z,25.80
2018-09-19T00:46:30.961Z,28.00
2018-09-19T00:48:59.951Z,24.97
2018-09-19T00:51:28.982Z,27.40
2018-09-19T00:53:57.850Z,26.53
2018-09-19T00:56:26.835Z,22.67
2018-09-19T00:58:55.779Z,26.13
2018-09-19T01:01:24.724Z,24.93
2018-09-19T01:03:53.861Z,36.97
2018-09-19T01:06:22.794Z,26.30
2018-09-19T01:08:51.837Z,26.43
2018-09-19T01:11:20.774Z,31.57
2018-09-19T01:13:55.387Z,27.20
2018-09-19T01:16:24.371Z,26.73
2018-09-19T01:18:53.460Z,30.97
2018-09-19T01:21:22.646Z,29.60
2018-09-19T01:23:51.631Z,25.77
2018-09-19T01:26:20.518Z,27.03
2018-09-19T01:28:49.332Z,29.43
2018-09-19T01:31:18.459Z,29.47
2018-09-19T01:33:47.771Z,27.03
2018-09-19T01:36:16.816Z,33.30
2018-09-19T01:38:46.008Z,32.47
2018-09-19T01:41:14.980Z,28.13
2018-09-19T01:43:43.863Z,28.67
2018-09-19T01:46:13.464Z,30.70
2018-09-19T01:48:42.995Z,28.73
2018-09-19T01:51:12.271Z,28.67
2018-09-19T01:53:41.632Z,30.77
2018-09-19T01:56:10.495Z,30.17
2018-09-19T01:58:39.626Z,30.67
2018-09-19T02:01:08.824Z,28.60
2018-09-19T02:03:37.708Z,26.23
2018-09-19T02:06:06.804Z,33.60
2018-09-19T02:08:35.865Z,31.90
2018-09-19T02:11:04.951Z,30.17
2018-09-19T02:13:33.979Z,31.87
2018-09-19T02:16:03.110Z,29.87
2018-09-19T02:18:32.024Z,28.93
2018-09-19T02:21:01.118Z,26.47
2018-09-19T02:23:30.653Z,24.20
2018-09-19T02:25:59.523Z,28.97
2018-09-19T02:28:28.529Z,28.83
2018-09-19T02:30:57.656Z,26.23
2018-09-19T02:33:26.595Z,35.23
2018-09-19T02:35:55.580Z,25.47
2018-09-19T02:38:24.583Z,26.73
2018-09-19T02:40:53.596Z,30.23
2018-09-19T02:43:22.597Z,21.73
2018-09-19T02:45:51.539Z,26.83
2018-09-19T02:48:20.463Z,21.13
2018-09-19T02:50:49.709Z,25.87
2018-09-19T02:53:19.164Z,24.53
2018-09-19T02:55:48.012Z,23.93
2018-09-19T02:58:17.203Z,24.67
2018-09-19T03:00:46.251Z,20.57
2018-09-19T03:03:15.367Z,24.10
2018-09-19T03:05:44.291Z,20.43
2018-09-19T03:08:13.430Z,24.97
2018-09-19T03:10:42.361Z,24.73
2018-09-19T03:13:11.264Z,22.97
2018-09-19T03:15:40.352Z,22.27
2018-09-19T03:18:09.300Z,28.67
2018-09-19T03:20:38.229Z,24.87
2018-09-19T03:23:07.249Z,27.83
2018-09-19T03:25:36.149Z,29.40
2018-09-19T03:28:05.014Z,24.90
2018-09-19T03:30:34.144Z,30.37
2018-09-19T03:33:03.204Z,26.93
2018-09-19T03:35:32.375Z,25.87
2018-09-19T03:38:01.761Z,26.23
2018-09-19T03:40:30.834Z,31.23
2018-09-19T03:42:59.732Z,29.70
2018-09-19T03:45:28.860Z,28.83
2018-09-19T03:47:57.746Z,28.17
2018-09-19T03:50:26.660Z,33.20
2018-09-19T03:52:55.763Z,25.00
2018-09-19T03:55:24.683Z,31.10
2018-09-19T03:57:53.683Z,33.43
2018-09-19T04:00:22.810Z,29.83
2018-09-19T04:02:52.491Z,30.57
2018-09-19T04:05:21.692Z,26.47
2018-09-19T04:07:50.892Z,32.53
2018-09-19T04:10:20.268Z,29.70
2018-09-19T04:12:49.222Z,31.33
2018-09-19T04:15:18.640Z,38.60
2018-09-19T04:17:47.732Z,34.67
2018-09-19T04:20:16.615Z,38.87
2018-09-19T04:22:45.656Z,34.83
2018-09-19T04:25:14.703Z,36.13
2018-09-19T04:27:43.719Z,33.37
2018-09-19T04:30:13.066Z,33.27
2018-09-19T04:32:42.145Z,40.20
2018-09-19T04:35:11.141Z,47.17
2018-09-19T04:37:40.604Z,40.07
2018-09-19T04:40:09.910Z,36.33
2018-09-19T04:42:39.363Z,39.97
2018-09-19T04:45:08.370Z,40.93
2018-09-19T04:47:37.847Z,33.77
2018-09-19T04:50:06.898Z,38.00
2018-09-19T04:52:36.102Z,37.83
2018-09-19T04:55:05.958Z,44.00
2018-09-19T04:57:34.899Z,40.97
2018-09-19T05:00:03.908Z,44.17
2018-09-19T05:02:32.766Z,38.20
2018-09-19T05:05:01.652Z,44.00
2018-09-19T05:07:30.707Z,39.60
2018-09-19T05:09:59.672Z,34.20
2018-09-19T05:12:28.670Z,35.10
2018-09-19T05:14:57.986Z,42.20
2018-09-19T05:17:26.971Z,42.97
2018-09-19T05:19:56.102Z,38.27
2018-09-19T05:22:25.213Z,37.23
2018-09-19T05:24:54.099Z,45.10
2018-09-19T05:27:23.102Z,35.23
2018-09-19T05:29:52.194Z,42.23
2018-09-19T05:32:21.030Z,39.83
2018-09-19T05:34:49.990Z,37.80
2018-09-19T05:37:19.095Z,43.13
2018-09-19T05:39:47.968Z,31.07
2018-09-19T05:42:17.139Z,32.00
2018-09-19T05:44:46.230Z,36.80
2018-09-19T05:47:15.125Z,32.57
2018-09-19T05:49:44.027Z,39.90
2018-09-19T05:52:13.030Z,35.57
2018-09-19T05:54:41.973Z,37.33
2018-09-19T05:57:10.932Z,35.23
2018-09-19T05:59:40.154Z,38.17
2018-09-19T06:02:09.117Z,34.47
2018-09-19T06:04:38.052Z,34.63
2018-09-19T06:07:07.205Z,34.87
2018-09-19T06:09:36.155Z,36.27
2018-09-19T06:12:05.302Z,35.55
2018-09-19T06:14:34.455Z,37.63
2018-09-19T06:17:03.280Z,39.43
2018-09-19T06:19:32.155Z,30.27
2018-09-19T06:22:01.088Z,31.90
2018-09-19T06:24:29.923Z,33.83
2018-09-19T06:26:58.814Z,34.30
2018-09-19T06:29:27.859Z,31.47
2018-09-19T06:31:56.851Z,31.87
2018-09-19T06:34:25.999Z,31.97
2018-09-19T06:36:55.089Z,30.80
2018-09-19T06:39:23.971Z,32.27
2018-09-19T06:41:52.827Z,34.40
2018-09-19T06:44:22.307Z,34.50
2018-09-19T06:46:51.153Z,28.27
2018-09-19T06:49:20.079Z,32.60
2018-09-19T06:51:49.032Z,36.13
2018-09-19T06:54:18.004Z,39.80
2018-09-19T06:56:46.889Z,31.83
2018-09-19T06:59:15.923Z,27.03
2018-09-19T07:01:44.799Z,33.17
2018-09-19T07:04:13.666Z,28.67
2018-09-19T07:06:42.745Z,28.37
2018-09-19T07:09:11.918Z,32.73
2018-09-19T07:11:40.779Z,26.93
2018-09-19T07:14:09.906Z,28.93
2018-09-19T07:16:38.841Z,27.90
2018-09-19T07:19:07.743Z,30.20
2018-09-19T07:21:36.808Z,31.87
2018-09-19T07:24:06.181Z,27.33
2018-09-19T07:26:35.088Z,27.23
2018-09-19T07:29:04.147Z,31.00
2018-09-19T07:31:33.058Z,30.90
2018-09-19T07:34:02.145Z,28.77
2018-09-19T07:36:31.123Z,28.43
2018-09-19T07:39:00.036Z,34.30
2018-09-19T07:41:29.134Z,26.90
2018-09-19T07:43:58.158Z,26.17
2018-09-19T07:46:27.370Z,28.03
2018-09-19T07:48:56.411Z,32.73
2018-09-19T07:51:25.538Z,26.17
2018-09-19T07:53:54.422Z,30.17
2018-09-19T07:56:23.263Z,26.30
2018-09-19T07:58:52.247Z,28.80
2018-09-19T08:01:21.119Z,29.93
2018-09-19T08:03:49.979Z,26.17
2018-09-19T08:06:19.123Z,19.53
2018-09-19T08:08:48.011Z,29.97
2018-09-19T08:11:16.947Z,27.70
2018-09-19T08:13:45.942Z,26.77
2018-09-19T08:16:14.940Z,25.37
2018-09-19T08:18:43.856Z,26.23
2018-09-19T08:21:13.215Z,29.07
2018-09-19T08:23:42.070Z,25.50
2018-09-19T08:26:10.956Z,28.97
2018-09-19T08:28:40.072Z,27.93
2018-09-19T08:31:09.015Z,29.20
2018-09-19T08:33:37.958Z,26.97
2018-09-19T08:36:07.310Z,22.67
2018-09-19T08:38:36.275Z,26.97
2018-09-19T08:41:05.280Z,22.90
2018-09-19T08:43:34.488Z,24.43
2018-09-19T08:46:03.379Z,24.60
2018-09-19T08:48:33.091Z,29.53
2018-09-19T08:51:02.786Z,25.43
2018-09-19T08:53:32.139Z,27.00
2018-09-19T08:56:01.083Z,22.90
2018-09-19T08:58:30.455Z,27.73
2018-09-19T09:00:59.339Z,26.77
2018-09-19T09:03:28.223Z,25.87
2018-09-19T09:05:57.154Z,26.60
2018-09-19T09:08:25.991Z,28.13
2018-09-19T09:10:54.889Z,23.67
2018-09-19T09:13:23.932Z,25.43
2018-09-19T09:15:52.928Z,26.67
2018-09-19T09:18:21.804Z,22.30
2018-09-19T09:20:50.846Z,23.60
2018-09-19T09:23:19.766Z,23.50
2018-09-19T09:25:48.611Z,26.60
2018-09-19T09:28:17.779Z,25.63
2018-09-19T09:30:46.769Z,23.83
2018-09-19T09:33:15.675Z,23.73
2018-09-19T09:35:44.996Z,23.87
2018-09-19T09:38:13.859Z,24.87
2018-09-19T09:40:42.734Z,20.77
2018-09-19T09:43:11.651Z,23.97
2018-09-19T09:45:40.533Z,24.10
2018-09-19T09:48:09.625Z,23.33
2018-09-19T09:50:38.904Z,25.20
2018-09-19T09:53:07.965Z,25.20
2018-09-19T09:55:37.536Z,22.03
2018-09-19T09:58:06.846Z,24.47
2018-09-19T10:00:41.545Z,23.60
2018-09-19T10:03:11.671Z,30.43
2018-09-19T10:05:40.892Z,27.57
2018-09-19T10:08:09.954Z,28.07
2018-09-19T10:10:39.615Z,26.03
2018-09-19T10:13:08.527Z,27.43
2018-09-19T10:15:37.392Z,25.30
2018-09-19T10:18:06.549Z,27.27
2018-09-19T10:20:35.552Z,24.87
2018-09-19T10:23:04.502Z,29.93
2018-09-19T10:25:33.705Z,30.27
2018-09-19T10:28:02.522Z,25.27
2018-09-19T10:30:31.381Z,27.43
2018-09-19T10:33:01.200Z,29.30
2018-09-19T10:35:31.173Z,28.90
2018-09-19T10:38:00.101Z,28.93
2018-09-19T10:40:29.143Z,24.63
2018-09-19T10:42:58.446Z,24.60
2018-09-19T10:45:27.435Z,29.30
2018-09-19T10:47:56.429Z,27.83
2018-09-19T10:50:25.324Z,28.63
2018-09-19T10:52:54.414Z,32.30
2018-09-19T10:55:23.362Z,27.17
2018-09-19T10:57:52.859Z,32.47
2018-09-19T11:00:22.090Z,28.87
2018-09-19T11:02:51.207Z,32.27
2018-09-19T11:05:20.306Z,29.30
2018-09-19T11:07:49.190Z,25.47
2018-09-19T11:10:18.415Z,24.20
2018-09-19T11:12:47.366Z,25.43
2018-09-19T11:15:16.687Z,22.30
2018-09-19T11:17:45.920Z,24.17
2018-09-19T11:20:14.920Z,27.67
2018-09-19T11:22:43.806Z,24.87
2018-09-19T11:25:12.896Z,26.00
2018-09-19T11:27:41.927Z,23.47
2018-09-19T11:30:11.227Z,29.60
2018-09-19T11:32:40.235Z,26.50
2018-09-19T11:35:09.051Z,26.73
2018-09-19T11:37:38.228Z,28.60
2018-09-19T11:40:07.807Z,29.23
2018-09-19T11:42:36.889Z,23.43
2018-09-19T11:45:05.890Z,24.97
2018-09-19T11:47:34.844Z,22.00
2018-09-19T11:50:03.735Z,27.27
2018-09-19T11:52:32.563Z,22.40
2018-09-19T11:55:01.557Z,22.20
2018-09-19T11:57:30.407Z,22.33
2018-09-19T11:59:59.310Z,22.20
2018-09-19T12:02:28.353Z,21.80
2018-09-19T12:04:57.241Z,22.10
2018-09-19T12:07:26.180Z,23.97
2018-09-19T12:09:55.200Z,22.30
2018-09-19T12:12:24.050Z,21.50
2018-09-19T12:14:53.059Z,20.03
2018-09-19T12:17:22.154Z,24.47
2018-09-19T12:19:51.059Z,19.80
2018-09-19T12:22:20.155Z,22.00
2018-09-19T12:24:49.071Z,23.17
2018-09-19T12:27:17.967Z,22.87
2018-09-19T12:29:46.908Z,25.07
2018-09-19T12:32:16.059Z,19.33
2018-09-19T12:34:44.958Z,21.93
2018-09-19T12:37:13.903Z,22.50
2018-09-19T12:39:43.082Z,23.43
2018-09-19T12:42:12.100Z,23.10
2018-09-19T12:44:41.400Z,24.73
2018-09-19T12:47:10.504Z,21.57
2018-09-19T12:49:39.549Z,19.43
2018-09-19T12:52:08.382Z,19.90
2018-09-19T12:54:37.407Z,25.37
2018-09-19T12:57:06.692Z,18.20
2018-09-19T12:59:35.769Z,23.07
2018-09-19T13:02:04.885Z,24.03
2018-09-19T13:04:33.923Z,26.17
2018-09-19T13:07:02.892Z,25.83
2018-09-19T13:09:31.902Z,28.83
2018-09-19T13:12:00.781Z,21.07
2018-09-19T13:14:29.671Z,25.13
2018-09-19T13:16:58.763Z,21.23
2018-09-19T13:19:27.770Z,19.17
2018-09-19T13:21:56.676Z,30.53
2018-09-19T13:24:25.811Z,26.00
2018-09-19T13:26:54.783Z,22.43
2018-09-19T13:29:23.619Z,20.87
2018-09-19T13:31:53.162Z,22.67
2018-09-19T13:34:22.090Z,25.47
2018-09-19T13:36:51.039Z,23.50
2018-09-19T13:39:20.075Z,21.07
2018-09-19T13:41:49.092Z,25.50
2018-09-19T13:44:18.084Z,27.33
2018-09-19T13:46:47.106Z,26.93
2018-09-19T13:49:26.569Z,21.27
2018-09-19T13:51:55.968Z,24.50
2018-09-19T13:54:25.238Z,22.93
2018-09-19T13:56:54.285Z,21.33
2018-09-19T13:59:23.642Z,31.87
2018-09-19T14:01:52.587Z,24.30
2018-09-19T14:04:21.561Z,21.37
2018-09-19T14:06:50.785Z,26.10
2018-09-19T14:09:19.692Z,22.77
2018-09-19T14:11:48.667Z,22.37
2018-09-19T14:14:17.668Z,23.87
2018-09-19T14:16:46.595Z,23.33
2018-09-19T14:19:15.847Z,21.73
2018-09-19T14:21:45.157Z,20.77
2018-09-19T14:24:14.075Z,21.07
2018-09-19T14:26:43.763Z,20.93
2018-09-19T14:29:13.615Z,17.33
2018-09-19T14:31:42.619Z,22.07
2018-09-19T14:34:11.664Z,23.60
2018-09-19T14:36:40.943Z,22.10
2018-09-19T14:39:09.847Z,21.07
2018-09-19T14:41:39.128Z,17.87
2018-09-19T14:44:08.228Z,22.90
2018-09-19T14:46:37.198Z,20.73
2018-09-19T14:49:06.951Z,23.90
2018-09-19T14:51:36.011Z,18.47
2018-09-19T14:54:05.079Z,19.60
2018-09-19T14:56:33.971Z,23.33
2018-09-19T14:59:03.180Z,18.43
2018-09-19T15:01:32.343Z,17.90
2018-09-19T15:04:01.387Z,21.23
2018-09-19T15:06:30.685Z,14.87
2018-09-19T15:08:59.675Z,19.27
2018-09-19T15:11:28.668Z,19.97
2018-09-19T15:13:57.699Z,18.23
2018-09-19T15:16:26.602Z,18.73
2018-09-19T15:18:55.469Z,16.87
2018-09-19T15:21:24.662Z,17.27
2018-09-19T15:23:53.807Z,19.60
2018-09-19T15:26:23.026Z,18.93
2018-09-19T15:28:52.322Z,15.27
2018-09-19T15:31:21.503Z,18.63
2018-09-19T15:33:50.596Z,23.03
2018-09-19T15:36:20.074Z,18.60
2018-09-19T15:38:49.428Z,19.37
2018-09-19T15:41:18.379Z,26.07
2018-09-19T15:43:47.703Z,21.37
2018-09-19T15:46:16.669Z,18.87
2018-09-19T15:48:45.853Z,23.17
2018-09-19T15:51:15.217Z,16.43
2018-09-19T15:53:44.549Z,22.90
2018-09-19T15:56:13.511Z,18.87
2018-09-19T15:58:42.713Z,22.27
2018-09-19T16:01:11.752Z,19.90
2018-09-19T16:03:41.099Z,17.37
2018-09-19T16:06:10.542Z,20.50
2018-09-19T16:08:39.515Z,17.47
2018-09-19T16:11:08.588Z,17.33
2018-09-19T16:16:38.395Z,16.57
2018-09-19T16:19:07.596Z,20.30
2018-09-19T16:21:36.551Z,18.93
2018-09-19T16:24:05.451Z,18.80
2018-09-19T16:26:34.624Z,20.07
2018-09-19T16:29:03.515Z,15.77
2018-09-19T16:31:32.491Z,17.73
2018-09-19T16:34:02.379Z,20.03
2018-09-19T16:36:31.295Z,17.37
2018-09-19T16:39:01.033Z,15.97
2018-09-19T16:41:30.601Z,17.03
2018-09-19T16:43:59.700Z,14.40
2018-09-19T16:46:28.603Z,17.07
2018-09-19T16:48:57.700Z,18.17
2018-09-19T16:51:26.648Z,16.73
2018-09-19T16:53:55.658Z,20.17
2018-09-19T16:56:24.844Z,19.00
2018-09-19T16:58:53.891Z,16.77
2018-09-19T17:01:22.828Z,16.10
2018-09-19T17:03:52.137Z,18.40
2018-09-19T17:06:20.971Z,19.60
2018-09-19T17:08:49.999Z,16.40
2018-09-19T17:11:19.156Z,17.30
2018-09-19T17:13:48.343Z,20.67
2018-09-19T17:16:17.647Z,18.63
2018-09-19T17:18:46.921Z,15.87
2018-09-19T17:21:15.893Z,20.80
2018-09-19T17:23:44.839Z,21.10
2018-09-19T17:26:13.887Z,21.23
2018-09-19T17:28:44.201Z,18.20
2018-09-19T17:31:13.146Z,17.33
2018-09-19T17:33:42.300Z,14.67
2018-09-19T17:36:11.164Z,21.33
2018-09-19T17:38:40.052Z,16.10
2018-09-19T17:41:09.284Z,13.33
2018-09-19T17:43:38.169Z,19.83
2018-09-19T17:46:07.084Z,20.20
2018-09-19T17:48:36.222Z,17.40
2018-09-19T17:51:05.163Z,24.00
2018-09-19T17:53:34.046Z,22.70
2018-09-19T17:56:03.172Z,17.80
2018-09-19T17:58:32.055Z,17.93
2018-09-19T18:01:00.911Z,17.33
2018-09-19T18:03:30.135Z,15.23
2018-09-19T18:05:59.546Z,15.60
2018-09-19T18:08:28.510Z,16.57
2018-09-19T18:10:57.476Z,17.27
2018-09-19T18:13:26.307Z,14.83
2018-09-19T18:15:55.173Z,15.10
2018-09-19T18:18:24.310Z,14.40
2018-09-19T18:20:53.499Z,15.83
2018-09-19T18:23:22.504Z,16.50
2018-09-19T18:25:52.255Z,17.33
2018-09-19T18:28:22.211Z,14.63
2018-09-19T18:30:51.315Z,14.60
2018-09-19T18:33:20.527Z,15.87
2018-09-19T18:35:49.456Z,15.93
2018-09-19T18:38:18.531Z,20.97
2018-09-19T18:40:47.682Z,15.53
2018-09-19T18:43:16.662Z,18.17
2018-09-19T18:45:45.824Z,16.23
2018-09-19T18:48:15.056Z,18.03
2018-09-19T18:50:44.257Z,13.70
2018-09-19T18:53:13.367Z,14.57
2018-09-19T18:55:42.487Z,12.90
2018-09-19T18:58:11.484Z,15.23
2018-09-19T19:00:40.379Z,16.37
2018-09-19T19:03:09.470Z,15.20
2018-09-19T19:05:38.636Z,19.03
2018-09-19T19:08:07.707Z,15.23
2018-09-19T19:10:36.685Z,10.93
2018-09-19T19:13:06.966Z,15.80
2018-09-19T19:15:35.936Z,17.33
2018-09-19T19:18:05.026Z,19.77
2018-09-19T19:20:33.909Z,13.87
2018-09-19T19:23:02.796Z,12.90
2018-09-19T19:25:32.258Z,13.03
2018-09-19T19:28:01.107Z,21.13
2018-09-19T19:30:30.059Z,14.23
2018-09-19T19:32:58.995Z,17.60
2018-09-19T19:35:27.826Z,15.73
2018-09-19T19:37:56.815Z,20.13
2018-09-19T19:40:25.768Z,19.70
2018-09-19T19:42:55.076Z,14.33
2018-09-19T19:45:23.963Z,13.97
2018-09-19T19:47:53.199Z,16.60
2018-09-19T19:50:22.100Z,14.87
2018-09-19T19:52:50.967Z,13.23
2018-09-19T19:55:19.996Z,11.30
2018-09-19T19:57:48.866Z,19.33
2018-09-19T20:00:17.736Z,17.93
2018-09-19T20:02:46.791Z,14.73
2018-09-19T20:05:15.628Z,18.53
2018-09-19T20:07:44.459Z,18.07
2018-09-19T20:10:13.620Z,16.03
2018-09-19T20:12:42.476Z,13.60
2018-09-19T20:15:11.341Z,18.13
2018-09-19T20:17:40.292Z,18.53
2018-09-19T20:20:09.227Z,16.50
2018-09-19T20:22:38.055Z,13.63
2018-09-19T20:25:07.085Z,12.33
2018-09-19T20:27:35.972Z,18.67
2018-09-19T20:30:05.062Z,16.37
2018-09-19T20:32:34.329Z,14.27
2018-09-19T20:35:03.281Z,13.37
2018-09-19T20:37:32.183Z,13.23
2018-09-19T20:40:01.163Z,13.47
2018-09-19T20:42:30.065Z,13.90
2018-09-19T20:44:59.095Z,17.70
2018-09-19T20:47:28.255Z,12.63
2018-09-19T20:49:57.397Z,10.60
2018-09-19T20:52:26.264Z,11.27
2018-09-19T20:54:55.487Z,7.13
2018-09-19T20:57:24.363Z,12.50
2018-09-19T20:59:53.227Z,10.63
2018-09-19T21:02:22.255Z,10.00
2018-09-19T21:04:51.484Z,8.63
2018-09-19T21:07:20.355Z,11.80
2018-09-19T21:09:49.325Z,11.27
2018-09-19T21:12:18.391Z,13.40
2018-09-19T21:14:47.273Z,9.20
2018-09-19T21:17:16.459Z,9.07
2018-09-19T21:19:45.459Z,12.30
2018-09-19T21:22:14.378Z,10.00
2018-09-19T21:24:43.531Z,12.63
2018-09-19T21:27:12.528Z,12.27
2018-09-19T21:29:41.447Z,10.53
2018-09-19T21:32:10.451Z,8.23
2018-09-19T21:34:39.367Z,11.43
2018-09-19T21:37:08.368Z,10.30
2018-09-19T21:39:37.419Z,11.07
2018-09-19T21:42:06.327Z,11.63
2018-09-19T21:44:35.211Z,12.90
2018-09-19T21:47:04.204Z,9.90
2018-09-19T21:49:33.039Z,14.03
2018-09-19T21:52:02.168Z,12.03
2018-09-19T21:54:31.248Z,13.17
2018-09-19T21:57:00.174Z,13.00
2018-09-19T21:59:29.007Z,13.07
2018-09-19T22:01:58.048Z,11.93
2018-09-19T22:04:26.991Z,11.97
2018-09-19T22:06:55.833Z,14.30
2018-09-19T22:09:24.982Z,10.87
2018-09-19T22:11:53.864Z,13.93
2018-09-19T22:14:22.829Z,13.10
2018-09-19T22:16:51.891Z,14.37
2018-09-19T22:19:21.001Z,15.13
2018-09-19T22:21:50.011Z,9.03
2018-09-19T22:24:19.175Z,8.90
2018-09-19T22:26:48.235Z,12.07
2018-09-19T22:29:17.111Z,15.37
2018-09-19T22:31:46.183Z,11.10
2018-09-19T22:34:15.027Z,11.23
2018-09-19T22:36:43.884Z,11.33
2018-09-19T22:39:12.923Z,14.77
2018-09-19T22:41:41.818Z,13.67
2018-09-19T22:44:10.684Z,11.97
2018-09-19T22:46:39.581Z,15.60
2018-09-19T22:49:08.435Z,12.23
2018-09-19T22:51:37.296Z,12.17
2018-09-19T22:54:06.536Z,13.27
2018-09-19T22:56:35.383Z,15.07
2018-09-19T22:59:04.328Z,12.17
2018-09-19T23:01:33.311Z,11.30
2018-09-19T23:04:02.124Z,12.17
2018-09-19T23:06:31.109Z,12.37
2018-09-19T23:09:00.286Z,11.40
2018-09-19T23:11:29.183Z,11.90
2018-09-19T23:13:58.254Z,11.57
2018-09-19T23:16:27.375Z,13.40
2018-09-19T23:18:56.324Z,12.47
2018-09-19T23:21:25.288Z,14.57
2018-09-19T23:23:54.394Z,11.37
2018-09-19T23:26:23.231Z,12.43
2018-09-19T23:28:52.182Z,13.83
2018-09-19T23:31:21.363Z,16.93
2018-09-19T23:33:50.340Z,18.67
2018-09-19T23:36:19.163Z,14.10
2018-09-19T23:38:48.177Z,13.87
2018-09-19T23:41:17.015Z,16.67
2018-09-19T23:43:45.890Z,14.10
2018-09-19T23:46:15.136Z,16.57
2018-09-19T23:48:44.204Z,17.07
2018-09-19T23:51:13.055Z,15.67
2018-09-19T23:53:42.002Z,17.73
2018-09-19T23:56:10.907Z,13.40
2018-09-19T23:58:39.743Z,14.87
